createdAt,value
2019-04-23T00:04:00.943Z,152298.53
2019-04-23T00:06:33.790Z,152293.44
2019-04-23T00:09:19.169Z,152238.50
2019-04-23T00:14:11.544Z,152241.08
2019-04-23T00:16:42.554Z,152235.98
2019-04-23T00:19:12.022Z,152253.84
2019-04-23T00:21:55.143Z,152241.08
2019-04-23T00:24:46.659Z,152218.08
2019-04-23T00:27:17.326Z,152205.31
2019-04-23T00:29:37.421Z,152177.23
2019-04-23T00:32:10.367Z,152179.81
2019-04-23T00:34:42.668Z,152177.23
2019-04-23T00:37:18.727Z,152177.23
2019-04-23T00:39:42.368Z,152163.22
2019-04-23T00:42:17.142Z,152126.20
2019-04-23T00:44:47.808Z,152150.45
2019-04-23T00:47:22.829Z,152160.64
2019-04-23T00:49:50.898Z,152159.37
2019-04-23T00:52:22.149Z,152146.62
2019-04-23T00:54:57.973Z,152149.16
2019-04-23T00:57:25.831Z,152156.81
2019-04-23T01:00:03.448Z,152174.72
2019-04-23T01:02:26.345Z,152149.16
2019-04-23T01:04:59.672Z,152141.48
2019-04-23T01:07:28.574Z,152140.22
2019-04-23T01:12:37.733Z,152084.06
2019-04-23T01:15:15.715Z,152073.87
2019-04-23T01:17:39.546Z,152043.19
2019-04-23T01:20:14.180Z,152072.56
2019-04-23T01:22:25.641Z,152070.05
2019-04-23T01:25:07.280Z,152073.87
2019-04-23T01:27:55.893Z,152052.09
2019-04-23T01:30:41.094Z,152080.22
2019-04-23T01:32:54.633Z,152039.34
2019-04-23T01:35:28.350Z,152061.06
2019-04-23T01:38:04.808Z,152076.41
2019-04-23T01:40:36.856Z,152068.73
2019-04-23T01:43:02.753Z,152078.97
2019-04-23T01:45:30.730Z,152081.53
2019-04-23T01:48:11.087Z,152036.83
2019-04-23T01:50:52.132Z,152059.77
2019-04-23T01:55:49.794Z,152070.05
2019-04-23T01:58:32.231Z,152016.36
2019-04-23T02:01:07.177Z,152036.83
2019-04-23T02:03:20.866Z,152035.52
2019-04-23T02:06:13.337Z,152036.83
2019-04-23T02:08:26.246Z,152029.16
2019-04-23T02:11:04.828Z,152061.06
2019-04-23T02:15:57.284Z,152018.94
2019-04-23T02:18:52.855Z,152007.44
2019-04-23T02:21:10.612Z,152021.50
2019-04-23T02:23:44.311Z,151952.61
2019-04-23T02:26:15.192Z,152006.19
2019-04-23T02:29:07.584Z,151975.53
2019-04-23T02:31:44.531Z,152002.34
2019-04-23T02:34:00.498Z,151989.59
2019-04-23T02:36:32.258Z,152004.92
2019-04-23T02:38:56.148Z,151932.19
2019-04-23T02:44:11.481Z,151961.53
2019-04-23T02:46:31.712Z,151909.22
2019-04-23T02:54:16.052Z,151956.44
2019-04-23T02:56:46.301Z,151947.47
2019-04-23T02:59:21.864Z,151928.36
2019-04-23T03:04:26.532Z,151944.94
2019-04-23T03:06:56.449Z,151910.47
2019-04-23T03:09:31.660Z,151901.56
2019-04-23T03:14:27.146Z,151948.78
2019-04-23T03:19:52.323Z,151874.75
2019-04-23T03:22:35.117Z,151863.31
2019-04-23T03:27:50.004Z,151855.66
2019-04-23T03:30:48.249Z,151873.50
2019-04-23T03:38:13.946Z,151896.47
2019-04-23T03:40:34.865Z,151900.30
2019-04-23T03:43:10.488Z,151898.98
2019-04-23T03:45:49.170Z,151887.55
2019-04-23T03:48:17.751Z,151873.50
2019-04-23T03:50:53.722Z,151862.00
2019-04-23T03:53:29.920Z,151907.95
2019-04-23T03:55:59.581Z,151932.19
2019-04-23T03:58:41.394Z,151865.83
2019-04-23T04:06:05.515Z,151906.66
2019-04-23T04:16:01.309Z,151863.31
2019-04-23T04:18:37.827Z,151841.59
2019-04-23T04:21:09.626Z,151851.83
2019-04-23T04:23:43.474Z,151854.34
2019-04-23T04:31:30.885Z,151846.73
2019-04-23T04:44:47.363Z,151863.31
2019-04-23T04:46:34.567Z,151840.34
2019-04-23T04:51:27.103Z,151904.13
2019-04-23T04:54:00.909Z,151898.98
2019-04-23T04:56:29.303Z,151925.80
2019-04-23T04:59:05.254Z,151919.44
2019-04-23T05:01:25.477Z,151901.56
2019-04-23T05:03:58.251Z,151865.83
2019-04-23T05:06:24.770Z,151913.05
2019-04-23T05:09:00.675Z,151906.66
2019-04-23T05:11:39.015Z,151897.72
2019-04-23T05:14:08.136Z,151932.19
2019-04-23T05:16:35.613Z,151944.94
2019-04-23T05:19:19.805Z,151961.53
2019-04-23T05:21:46.887Z,151964.09
2019-04-23T05:24:08.560Z,151973.02
2019-04-23T05:26:53.619Z,151965.36
2019-04-23T05:29:29.112Z,151870.97
2019-04-23T05:31:32.863Z,151916.88
2019-04-23T05:34:10.015Z,151952.61
2019-04-23T05:36:45.415Z,151936.03
2019-04-23T05:39:20.849Z,151897.72
2019-04-23T05:41:45.284Z,151886.23
2019-04-23T05:44:21.100Z,151904.13
2019-04-23T05:47:11.496Z,151881.16
2019-04-23T05:49:43.084Z,151863.31
2019-04-23T05:51:57.358Z,151898.98
2019-04-23T05:54:26.623Z,151859.48
2019-04-23T05:56:55.257Z,151868.41
2019-04-23T05:59:33.047Z,151881.16
2019-04-23T06:02:05.174Z,151956.44
2019-04-23T06:07:16.993Z,151951.30
2019-04-23T06:09:53.163Z,151952.61
2019-04-23T06:12:18.785Z,151938.55
2019-04-23T06:14:48.242Z,151941.11
2019-04-23T06:19:45.405Z,151973.02
2019-04-23T06:24:45.072Z,152110.88
2019-04-23T06:27:21.740Z,152220.66
2019-04-23T06:29:43.134Z,152187.47
2019-04-23T06:32:22.253Z,152232.16
2019-04-23T06:34:54.998Z,152098.13
2019-04-23T06:37:27.692Z,152110.88
2019-04-23T06:39:55.149Z,152113.41
2019-04-23T06:42:23.502Z,152160.64
2019-04-23T06:44:58.440Z,152264.08
2019-04-23T06:47:25.991Z,152251.31
2019-04-23T06:50:00.093Z,152229.58
2019-04-23T06:52:24.846Z,152206.58
2019-04-23T06:55:01.077Z,152269.17
2019-04-23T06:57:33.579Z,152320.31
2019-04-23T07:00:08.405Z,152304.94
2019-04-23T07:02:37.663Z,152299.84
2019-04-23T07:05:10.374Z,152221.91
2019-04-23T07:10:15.819Z,152325.41
2019-04-23T07:12:44.809Z,152382.87
2019-04-23T07:15:30.952Z,152363.70
2019-04-23T07:17:40.616Z,152402.05
2019-04-23T07:22:49.969Z,152428.84
2019-04-23T07:25:17.707Z,152391.80
2019-04-23T07:27:47.640Z,152423.73
2019-04-23T07:30:29.950Z,152455.69
2019-04-23T07:33:01.172Z,152430.14
2019-04-23T07:35:25.725Z,152430.14
2019-04-23T07:38:06.108Z,152425.00
2019-04-23T07:40:33.565Z,152472.28
2019-04-23T07:43:15.560Z,152547.69
2019-04-23T07:46:12.243Z,152533.59
2019-04-23T07:48:32.550Z,152557.92
2019-04-23T07:50:59.005Z,152506.80
2019-04-23T07:53:44.051Z,152488.88
2019-04-23T07:56:07.562Z,152499.12
2019-04-23T07:58:33.183Z,152465.92
2019-04-23T08:01:13.815Z,152504.22
2019-04-23T08:03:45.125Z,152496.56
2019-04-23T08:06:12.090Z,152583.52
2019-04-23T08:08:48.802Z,152566.86
2019-04-23T08:13:56.983Z,152628.25
2019-04-23T08:18:53.846Z,152660.16
2019-04-23T08:21:28.564Z,152619.25
2019-04-23T08:24:06.619Z,152676.81
2019-04-23T08:29:26.759Z,152687.02
2019-04-23T08:34:35.773Z,152681.91
2019-04-23T08:39:39.788Z,152675.50
2019-04-23T08:42:27.102Z,152773.97
2019-04-23T08:45:05.087Z,152789.31
2019-04-23T08:52:16.678Z,152827.70
2019-04-23T08:55:02.625Z,152805.94
2019-04-23T08:57:21.457Z,152855.83
2019-04-23T08:59:53.222Z,152855.83
2019-04-23T09:02:31.263Z,152756.03
2019-04-23T09:04:54.161Z,152817.45
2019-04-23T09:07:29.772Z,152852.00
2019-04-23T09:09:57.231Z,152871.19
2019-04-23T09:12:28.339Z,152910.80
2019-04-23T09:15:04.009Z,152913.38
2019-04-23T09:17:34.644Z,152931.25
2019-04-23T09:22:34.730Z,152970.92
2019-04-23T09:27:36.582Z,152960.72
2019-04-23T09:30:07.821Z,152923.58
2019-04-23T09:35:24.030Z,153005.53
2019-04-23T09:37:59.678Z,153038.78
2019-04-23T09:41:08.452Z,153023.42
2019-04-23T09:43:27.035Z,153023.42
2019-04-23T09:46:17.449Z,152977.34
2019-04-23T09:48:50.953Z,152996.48
2019-04-23T09:51:17.407Z,153066.94
2019-04-23T09:53:40.687Z,153119.39
2019-04-23T09:56:14.154Z,153159.02
2019-04-23T09:58:59.109Z,153169.28
2019-04-23T10:03:52.113Z,153180.81
2019-04-23T10:06:16.121Z,153219.23
2019-04-23T10:08:46.809Z,153226.91
2019-04-23T10:11:12.225Z,153210.23
2019-04-23T10:13:44.804Z,153212.81
2019-04-23T10:16:17.133Z,153239.70
2019-04-23T10:18:47.035Z,153242.28
2019-04-23T10:21:17.526Z,153271.72
2019-04-23T10:23:47.568Z,153306.30
2019-04-23T10:26:17.282Z,153370.31
2019-04-23T10:28:49.766Z,153363.91
2019-04-23T10:31:21.090Z,153280.66
2019-04-23T10:33:52.246Z,153324.20
2019-04-23T10:36:25.868Z,153348.53
2019-04-23T10:39:00.594Z,153451.00
2019-04-23T10:41:25.771Z,153452.31
2019-04-23T10:44:00.752Z,153470.22
2019-04-23T10:46:53.621Z,153609.86
2019-04-23T10:54:48.525Z,153656.02
2019-04-23T10:59:47.332Z,153509.94
2019-04-23T11:17:52.047Z,153784.13
2019-04-23T11:20:25.826Z,153795.67
2019-04-23T11:22:48.130Z,153726.47
2019-04-23T11:25:31.288Z,153648.31
2019-04-23T11:27:52.413Z,153695.75
2019-04-23T11:30:36.500Z,153730.31
2019-04-23T11:33:02.755Z,153802.14
2019-04-23T11:35:31.300Z,153764.94
2019-04-23T11:40:25.517Z,153859.81
2019-04-23T11:43:09.712Z,153775.16
2019-04-23T11:51:15.839Z,153891.86
2019-04-23T11:51:15.839Z,153988.08
2019-04-23T11:53:18.436Z,153938.00
2019-04-23T11:55:48.689Z,153980.34
2019-04-23T12:01:02.471Z,154045.78
2019-04-23T12:03:19.649Z,154023.94
2019-04-23T12:06:12.076Z,154115.03
2019-04-23T12:08:44.710Z,154165.08
2019-04-23T12:11:50.247Z,154171.52
2019-04-23T12:14:15.999Z,154275.41
2019-04-23T12:16:45.029Z,154211.25
2019-04-23T12:19:28.033Z,154135.55
2019-04-23T12:21:44.003Z,154212.56
2019-04-23T12:24:16.267Z,154220.27
2019-04-23T12:26:44.406Z,154262.58
2019-04-23T12:29:25.619Z,154230.50
2019-04-23T12:31:47.749Z,154201.00
2019-04-23T12:34:20.646Z,154276.72
2019-04-23T12:39:23.189Z,154276.72
2019-04-23T12:41:54.608Z,154317.78
2019-04-23T12:44:22.069Z,154272.86
2019-04-23T12:46:57.545Z,154261.31
2019-04-23T12:49:44.606Z,154280.52
2019-04-23T12:52:02.789Z,154325.47
2019-04-23T12:54:41.262Z,154163.81
2019-04-23T12:57:04.821Z,154279.25
2019-04-23T12:59:36.812Z,154286.95
2019-04-23T13:02:19.889Z,154245.91
2019-04-23T13:04:43.930Z,154267.69
2019-04-23T13:07:09.064Z,154289.53
2019-04-23T13:09:54.103Z,154229.23
2019-04-23T13:12:32.832Z,154288.22
2019-04-23T13:14:56.793Z,154374.28
2019-04-23T13:17:48.953Z,154310.06
2019-04-23T13:22:31.541Z,154474.36
2019-04-23T13:25:09.265Z,154596.37
2019-04-23T13:27:55.586Z,154620.77
2019-04-23T13:30:23.173Z,154700.44
2019-04-23T13:32:55.303Z,154758.23
2019-04-23T13:37:59.320Z,154808.31
2019-04-23T13:40:27.733Z,154949.69
2019-04-23T13:43:01.002Z,154994.70
2019-04-23T13:45:53.031Z,154998.56
2019-04-23T13:48:03.493Z,155030.70
2019-04-23T13:50:47.798Z,155127.06
2019-04-23T13:55:30.315Z,155754.95
2019-04-23T14:03:17.609Z,155599.20
2019-04-23T14:06:10.710Z,155392.00
2019-04-23T14:08:30.601Z,155420.31
2019-04-23T14:11:02.273Z,155307.17
2019-04-23T14:13:37.284Z,155263.41
2019-04-23T14:16:04.658Z,155330.28
2019-04-23T14:18:53.973Z,155259.53
2019-04-23T14:21:08.632Z,155024.25
2019-04-23T14:23:52.474Z,155083.39
2019-04-23T14:33:46.899Z,155019.13
2019-04-23T14:36:17.730Z,155111.67
2019-04-23T14:38:45.818Z,155070.50
2019-04-23T14:46:41.404Z,154827.64
2019-04-23T14:48:52.114Z,154825.00
2019-04-23T14:53:48.338Z,154628.47
2019-04-23T14:56:23.904Z,154650.28
2019-04-23T14:59:07.372Z,154551.44
2019-04-23T15:03:57.540Z,154420.47
2019-04-23T15:09:19.666Z,154330.59
2019-04-23T15:14:06.566Z,154212.56
2019-04-23T15:16:39.146Z,154145.78
2019-04-23T15:29:01.390Z,154063.70
2019-04-23T15:31:55.457Z,154093.19
2019-04-23T15:42:00.823Z,154047.05
2019-04-23T15:44:16.361Z,154039.34
2019-04-23T15:46:57.206Z,154070.14
2019-04-23T15:49:29.782Z,154045.78
2019-04-23T15:51:56.707Z,154063.70
2019-04-23T15:54:35.402Z,154032.97
2019-04-23T15:57:05.855Z,154020.09
2019-04-23T16:01:41.848Z,154059.86
2019-04-23T16:04:08.758Z,154048.31
2019-04-23T16:06:38.929Z,154034.22
2019-04-23T16:09:36.176Z,154063.70
2019-04-23T16:12:06.212Z,154027.80
2019-04-23T16:14:49.411Z,153982.92
2019-04-23T16:17:24.025Z,154000.91
2019-04-23T16:20:19.108Z,153970.06
2019-04-23T16:22:36.731Z,153902.09
2019-04-23T16:27:34.936Z,153908.53
2019-04-23T16:30:17.384Z,153850.84
2019-04-23T16:32:54.298Z,153802.14
2019-04-23T16:35:28.276Z,153841.89
2019-04-23T16:38:01.411Z,153839.31
2019-04-23T16:42:59.694Z,153773.89
2019-04-23T16:45:29.380Z,153793.14
2019-04-23T16:47:56.575Z,153761.09
2019-04-23T16:50:30.977Z,153761.09
2019-04-23T16:53:03.961Z,153745.70
2019-04-23T16:55:30.578Z,153743.12
2019-04-23T16:58:23.157Z,153707.23
2019-04-23T17:00:43.740Z,153745.70
2019-04-23T17:03:19.378Z,153716.25
2019-04-23T17:05:39.318Z,153684.20
2019-04-23T17:08:35.831Z,153695.75
2019-04-23T17:10:45.760Z,153656.02
2019-04-23T17:13:24.037Z,153658.59
2019-04-23T17:18:24.546Z,153644.47
2019-04-23T17:20:52.832Z,153625.25
2019-04-23T17:23:34.589Z,153584.20
2019-04-23T17:25:55.640Z,153594.47
2019-04-23T17:31:26.338Z,153612.44
2019-04-23T17:33:51.902Z,153607.28
2019-04-23T17:36:26.625Z,153570.14
2019-04-23T17:41:41.706Z,153526.56
2019-04-23T17:44:18.898Z,153541.95
2019-04-23T17:46:43.178Z,153545.80
2019-04-23T17:49:10.821Z,153511.19
2019-04-23T17:51:42.622Z,153490.70
2019-04-23T17:56:54.141Z,153475.33
2019-04-23T18:01:59.225Z,153444.63
2019-04-23T18:04:30.746Z,153430.50
2019-04-23T18:06:52.368Z,153427.97
2019-04-23T18:09:32.793Z,153397.17
2019-04-23T18:11:54.347Z,153417.72
2019-04-23T18:14:16.551Z,153420.28
2019-04-23T18:16:57.526Z,153386.95
2019-04-23T18:19:24.528Z,153357.47
2019-04-23T18:24:59.369Z,153304.98
2019-04-23T18:27:26.250Z,153294.77
2019-04-23T18:30:09.943Z,153322.94
2019-04-23T18:32:43.412Z,153308.83
2019-04-23T18:40:05.197Z,153246.13
2019-04-23T18:42:46.414Z,153251.23
2019-04-23T18:45:24.472Z,153233.33
2019-04-23T18:47:51.921Z,153212.81
2019-04-23T18:50:26.884Z,153200.02
2019-04-23T18:55:41.236Z,153184.66
2019-04-23T18:57:51.883Z,153187.19
2019-04-23T19:00:37.280Z,153197.44
2019-04-23T19:03:11.934Z,153200.02
2019-04-23T19:06:10.485Z,153176.97
2019-04-23T19:08:52.096Z,153141.13
2019-04-23T19:11:09.162Z,153148.81
2019-04-23T19:13:32.892Z,153133.44
2019-04-23T19:16:04.028Z,153130.91
2019-04-23T19:18:43.093Z,153092.50
2019-04-23T19:23:46.913Z,153046.45
2019-04-23T19:26:27.441Z,153064.36
2019-04-23T19:28:52.961Z,153075.88
2019-04-23T19:34:21.329Z,153018.31
2019-04-23T19:36:52.576Z,153006.80
2019-04-23T19:39:19.312Z,152969.66
2019-04-23T19:44:31.348Z,152987.55
2019-04-23T19:46:56.174Z,152972.19
2019-04-23T19:49:19.686Z,152949.19
2019-04-23T19:54:25.989Z,152898.02
2019-04-23T19:57:04.743Z,152892.91
2019-04-23T19:59:23.440Z,152892.91
2019-04-23T20:04:32.183Z,152937.67
2019-04-23T20:14:41.659Z,152905.69
2019-04-23T20:22:06.207Z,152878.83
2019-04-23T20:24:55.473Z,152864.78
2019-04-23T20:27:06.203Z,152878.83
2019-04-23T20:35:00.390Z,152845.58
2019-04-23T20:37:44.579Z,152820.03
2019-04-23T20:39:58.265Z,152818.77
2019-04-23T20:42:27.178Z,152809.78
2019-04-23T20:45:02.591Z,152786.80
2019-04-23T20:47:32.620Z,152784.17
2019-04-23T20:50:03.418Z,152764.97
2019-04-23T20:52:29.243Z,152797.00
2019-04-23T20:57:45.444Z,152822.59
2019-04-23T21:00:20.545Z,152826.39
2019-04-23T21:03:30.442Z,152809.78
2019-04-23T21:05:27.684Z,152830.22
2019-04-23T21:08:28.398Z,152821.28
2019-04-23T21:10:42.965Z,152816.19
2019-04-23T21:13:15.768Z,152805.94
2019-04-23T21:20:55.040Z,152811.08
2019-04-23T21:23:29.916Z,152805.94
2019-04-23T21:31:06.355Z,152782.91
2019-04-23T21:33:35.386Z,152789.31
2019-04-23T21:36:13.955Z,152788.06
2019-04-23T21:51:38.400Z,152780.33
2019-04-23T21:53:55.519Z,152799.56
2019-04-23T21:56:35.380Z,152785.44
2019-04-23T22:01:36.702Z,152782.91
2019-04-23T22:06:43.337Z,152771.39
2019-04-23T22:09:12.391Z,152781.59
2019-04-23T22:19:20.257Z,152803.41
2019-04-23T22:21:47.485Z,152828.97
2019-04-23T22:31:47.380Z,152779.06
2019-04-23T22:34:22.010Z,152738.16
2019-04-23T22:36:56.278Z,152742.00
2019-04-23T22:39:25.374Z,152752.20
2019-04-23T22:41:55.864Z,152694.69
2019-04-23T22:44:34.063Z,152710.03
2019-04-23T22:47:02.221Z,152733.00
2019-04-23T22:49:57.229Z,152698.52
2019-04-23T22:54:39.801Z,152706.19
2019-04-23T22:57:26.172Z,152745.84
2019-04-23T22:59:48.524Z,152742.00
2019-04-23T23:02:36.649Z,152744.53
2019-04-23T23:05:09.923Z,152753.47
2019-04-23T23:07:39.661Z,152766.28
2019-04-23T23:10:08.439Z,152748.36
2019-04-23T23:12:55.966Z,152747.09
2019-04-23T23:17:54.604Z,152734.33
2019-04-23T23:22:52.283Z,152683.17
2019-04-23T23:25:20.563Z,152701.09
2019-04-23T23:27:54.258Z,152721.55
2019-04-23T23:30:23.398Z,152742.00
2019-04-23T23:32:55.580Z,152733.00
2019-04-23T23:35:22.337Z,152739.42
2019-04-23T23:37:56.540Z,152712.56
2019-04-23T23:40:25.527Z,152736.84
2019-04-23T23:43:05.773Z,152740.69
2019-04-23T23:45:31.405Z,152736.84
2019-04-23T23:55:27.868Z,152721.55
2019-04-23T23:58:10.744Z,152713.88
